sensor_id;sensor_type;location;lat;lon;timestamp;P1;durP1;ratioP1;P2;durP2;ratioP2
68995;SDS011;56056;48.990;12.146;2024-01-15T00:00:50;915.83;;;561.57;;
68995;SDS011;56056;48.990;12.146;2024-01-15T00:03:16;1038.50;;;675.80;;
68995;SDS011;56056;48.990;12.146;2024-01-15T00:05:41;1999.90;;;999.90;;
68995;SDS011;56056;48.990;12.146;2024-01-15T00:08:07;940.60;;;584.43;;
68995;SDS011;56056;48.990;12.146;2024-01-15T00:10:34;1008.70;;;646.67;;
68995;SDS011;56056;48.990;12.146;2024-01-15T00:13:00;942.33;;;585.93;;
68995;SDS011;56056;48.990;12.146;2024-01-15T00:15:26;1999.90;;;999.90;;
68995;SDS011;56056;48.990;12.146;2024-01-15T00:17:53;1999.90;;;999.90;;
68995;SDS011;56056;48.990;12.146;2024-01-15T00:20:19;1023.77;;;657.20;;
68995;SDS011;56056;48.990;12.146;2024-01-15T00:22:45;967.20;;;608.37;;
68995;SDS011;56056;48.990;12.146;2024-01-15T00:25:11;847.47;;;567.70;;
68995;SDS011;56056;48.990;12.146;2024-01-15T00:27:38;918.70;;;561.97;;
68995;SDS011;56056;48.990;12.146;2024-01-15T00:30:04;1999.90;;;999.90;;
68995;SDS011;56056;48.990;12.146;2024-01-15T00:32:31;1999.90;;;999.90;;
68995;SDS011;56056;48.990;12.146;2024-01-15T00:34:57;1999.90;;;999.90;;
68995;SDS011;56056;48.990;12.146;2024-01-15T00:37:23;1361.73;;;674.93;;
68995;SDS011;56056;48.990;12.146;2024-01-15T00:39:49;1999.90;;;999.90;;
68995;SDS011;56056;48.990;12.146;2024-01-15T00:42:15;1999.90;;;999.90;;
68995;SDS011;56056;48.990;12.146;2024-01-15T00:44:43;1999.90;;;999.90;;
68995;SDS011;56056;48.990;12.146;2024-01-15T00:47:08;1999.90;;;999.90;;
68995;SDS011;56056;48.990;12.146;2024-01-15T00:49:34;1999.90;;;999.90;;
68995;SDS011;56056;48.990;12.146;2024-01-15T00:52:00;1999.90;;;999.90;;
68995;SDS011;56056;48.990;12.146;2024-01-15T00:54:26;1999.90;;;999.90;;
68995;SDS011;56056;48.990;12.146;2024-01-15T00:56:52;1999.90;;;999.90;;
68995;SDS011;56056;48.990;12.146;2024-01-15T00:59:18;1999.90;;;999.90;;
68995;SDS011;56056;48.990;12.146;2024-01-15T01:01:47;662.53;;;275.58;;
68995;SDS011;56056;48.990;12.146;2024-01-15T01:04:13;1999.90;;;999.90;;
68995;SDS011;56056;48.990;12.146;2024-01-15T01:06:39;1999.90;;;999.90;;
68995;SDS011;56056;48.990;12.146;2024-01-15T01:09:05;1999.90;;;999.90;;
68995;SDS011;56056;48.990;12.146;2024-01-15T01:11:31;1136.75;;;571.97;;
68995;SDS011;56056;48.990;12.146;2024-01-15T01:13:57;1999.90;;;999.90;;
68995;SDS011;56056;48.990;12.146;2024-01-15T01:16:23;1148.47;;;562.33;;
68995;SDS011;56056;48.990;12.146;2024-01-15T01:18:50;1999.90;;;999.90;;
68995;SDS011;56056;48.990;12.146;2024-01-15T01:21:16;1999.90;;;999.90;;
68995;SDS011;56056;48.990;12.146;2024-01-15T01:23:41;1999.90;;;999.90;;
68995;SDS011;56056;48.990;12.146;2024-01-15T01:26:07;1999.90;;;999.90;;
68995;SDS011;56056;48.990;12.146;2024-01-15T01:28:33;1999.90;;;999.90;;
68995;SDS011;56056;48.990;12.146;2024-01-15T01:30:59;1999.90;;;999.90;;
68995;SDS011;56056;48.990;12.146;2024-01-15T01:33:25;1999.90;;;999.90;;
68995;SDS011;56056;48.990;12.146;2024-01-15T01:35:52;1999.90;;;999.90;;
68995;SDS011;56056;48.990;12.146;2024-01-15T01:38:18;209.87;;;84.03;;
68995;SDS011;56056;48.990;12.146;2024-01-15T01:40:44;1999.90;;;999.90;;
68995;SDS011;56056;48.990;12.146;2024-01-15T01:43:10;1999.90;;;999.90;;
68995;SDS011;56056;48.990;12.146;2024-01-15T01:45:36;1999.90;;;999.90;;
68995;SDS011;56056;48.990;12.146;2024-01-15T01:48:03;1999.90;;;999.90;;
68995;SDS011;56056;48.990;12.146;2024-01-15T01:50:30;1999.90;;;999.90;;
68995;SDS011;56056;48.990;12.146;2024-01-15T01:52:58;1999.90;;;999.90;;
68995;SDS011;56056;48.990;12.146;2024-01-15T01:55:26;1999.90;;;999.90;;
68995;SDS011;56056;48.990;12.146;2024-01-15T01:57:54;1999.90;;;999.90;;
68995;SDS011;56056;48.990;12.146;2024-01-15T02:00:21;1999.90;;;999.90;;
68995;SDS011;56056;48.990;12.146;2024-01-15T02:02:48;1999.90;;;999.90;;
68995;SDS011;56056;48.990;12.146;2024-01-15T02:05:14;1999.90;;;999.90;;
68995;SDS011;56056;48.990;12.146;2024-01-15T02:07:45;1999.90;;;999.90;;
68995;SDS011;56056;48.990;12.146;2024-01-15T02:10:12;1999.90;;;999.90;;
68995;SDS011;56056;48.990;12.146;2024-01-15T02:12:38;1999.90;;;999.90;;
68995;SDS011;56056;48.990;12.146;2024-01-15T02:15:05;1999.90;;;999.90;;
68995;SDS011;56056;48.990;12.146;2024-01-15T02:17:31;1999.90;;;999.90;;
68995;SDS011;56056;48.990;12.146;2024-01-15T02:19:57;1999.90;;;999.90;;
68995;SDS011;56056;48.990;12.146;2024-01-15T02:22:23;1999.90;;;999.90;;
68995;SDS011;56056;48.990;12.146;2024-01-15T02:24:50;329.45;;;258.35;;
68995;SDS011;56056;48.990;12.146;2024-01-15T02:27:16;1999.90;;;999.90;;
68995;SDS011;56056;48.990;12.146;2024-01-15T02:29:42;1999.90;;;999.90;;
68995;SDS011;56056;48.990;12.146;2024-01-15T02:32:08;1999.90;;;999.90;;
68995;SDS011;56056;48.990;12.146;2024-01-15T02:34:34;1999.90;;;999.90;;
68995;SDS011;56056;48.990;12.146;2024-01-15T02:37:00;1999.90;;;999.90;;
68995;SDS011;56056;48.990;12.146;2024-01-15T02:39:26;1999.90;;;999.90;;
68995;SDS011;56056;48.990;12.146;2024-01-15T02:41:55;1999.90;;;999.90;;
68995;SDS011;56056;48.990;12.146;2024-01-15T02:44:22;1999.90;;;999.90;;
68995;SDS011;56056;48.990;12.146;2024-01-15T02:46:48;1999.90;;;999.90;;
68995;SDS011;56056;48.990;12.146;2024-01-15T02:49:14;1999.90;;;999.90;;
68995;SDS011;56056;48.990;12.146;2024-01-15T02:51:40;1999.90;;;999.90;;
68995;SDS011;56056;48.990;12.146;2024-01-15T02:54:06;1999.90;;;999.90;;
68995;SDS011;56056;48.990;12.146;2024-01-15T02:56:32;1999.90;;;999.90;;
68995;SDS011;56056;48.990;12.146;2024-01-15T02:58:59;1999.90;;;999.90;;
68995;SDS011;56056;48.990;12.146;2024-01-15T03:01:25;1999.90;;;999.90;;
68995;SDS011;56056;48.990;12.146;2024-01-15T03:03:51;1999.90;;;999.90;;
68995;SDS011;56056;48.990;12.146;2024-01-15T03:06:17;1999.90;;;999.90;;
68995;SDS011;56056;48.990;12.146;2024-01-15T03:08:43;1999.90;;;999.90;;
68995;SDS011;56056;48.990;12.146;2024-01-15T03:11:09;1999.90;;;999.90;;
68995;SDS011;56056;48.990;12.146;2024-01-15T03:13:35;1999.90;;;999.90;;
68995;SDS011;56056;48.990;12.146;2024-01-15T03:16:03;1999.90;;;999.90;;
68995;SDS011;56056;48.990;12.146;2024-01-15T03:18:30;1999.90;;;999.90;;
68995;SDS011;56056;48.990;12.146;2024-01-15T03:20:55;1999.90;;;999.90;;
68995;SDS011;56056;48.990;12.146;2024-01-15T03:23:21;1999.90;;;999.90;;
68995;SDS011;56056;48.990;12.146;2024-01-15T03:25:47;1999.90;;;999.90;;
68995;SDS011;56056;48.990;12.146;2024-01-15T03:28:14;1999.90;;;999.90;;
68995;SDS011;56056;48.990;12.146;2024-01-15T03:30:39;1999.90;;;999.90;;
68995;SDS011;56056;48.990;12.146;2024-01-15T03:33:07;1999.90;;;999.90;;
68995;SDS011;56056;48.990;12.146;2024-01-15T03:35:33;1999.90;;;999.90;;
68995;SDS011;56056;48.990;12.146;2024-01-15T03:37:58;1999.90;;;999.90;;
68995;SDS011;56056;48.990;12.146;2024-01-15T03:40:24;1999.90;;;999.90;;
68995;SDS011;56056;48.990;12.146;2024-01-15T03:42:50;1999.90;;;999.90;;
68995;SDS011;56056;48.990;12.146;2024-01-15T03:45:16;1999.90;;;999.90;;
68995;SDS011;56056;48.990;12.146;2024-01-15T03:47:42;1999.90;;;999.90;;
68995;SDS011;56056;48.990;12.146;2024-01-15T03:50:10;1999.90;;;999.90;;
68995;SDS011;56056;48.990;12.146;2024-01-15T03:52:35;1999.90;;;999.90;;
68995;SDS011;56056;48.990;12.146;2024-01-15T03:55:01;1999.90;;;999.90;;
68995;SDS011;56056;48.990;12.146;2024-01-15T03:57:29;1999.90;;;999.90;;
68995;SDS011;56056;48.990;12.146;2024-01-15T03:59:55;1999.90;;;999.90;;
68995;SDS011;56056;48.990;12.146;2024-01-15T04:02:20;1999.90;;;999.90;;
68995;SDS011;56056;48.990;12.146;2024-01-15T04:04:46;1999.90;;;999.90;;
68995;SDS011;56056;48.990;12.146;2024-01-15T04:07:13;1999.90;;;999.90;;
68995;SDS011;56056;48.990;12.146;2024-01-15T04:09:39;1103.22;;;571.78;;
68995;SDS011;56056;48.990;12.146;2024-01-15T04:12:05;1999.90;;;999.90;;
68995;SDS011;56056;48.990;12.146;2024-01-15T04:14:32;1999.90;;;999.90;;
68995;SDS011;56056;48.990;12.146;2024-01-15T04:16:58;1999.90;;;999.90;;
68995;SDS011;56056;48.990;12.146;2024-01-15T04:19:23;1999.90;;;999.90;;
68995;SDS011;56056;48.990;12.146;2024-01-15T04:21:49;673.08;;;339.83;;
68995;SDS011;56056;48.990;12.146;2024-01-15T04:24:16;1999.90;;;999.90;;
68995;SDS011;56056;48.990;12.146;2024-01-15T04:26:43;1999.90;;;999.90;;
68995;SDS011;56056;48.990;12.146;2024-01-15T04:29:08;1999.90;;;999.90;;
68995;SDS011;56056;48.990;12.146;2024-01-15T04:31:34;1999.90;;;999.90;;
68995;SDS011;56056;48.990;12.146;2024-01-15T04:34:00;1999.90;;;999.90;;
68995;SDS011;56056;48.990;12.146;2024-01-15T04:36:26;1572.68;;;799.10;;
68995;SDS011;56056;48.990;12.146;2024-01-15T04:38:52;1999.90;;;999.90;;
68995;SDS011;56056;48.990;12.146;2024-01-15T04:41:19;1999.90;;;999.90;;
68995;SDS011;56056;48.990;12.146;2024-01-15T04:43:46;1999.90;;;999.90;;
68995;SDS011;56056;48.990;12.146;2024-01-15T04:46:11;1999.90;;;999.90;;
68995;SDS011;56056;48.990;12.146;2024-01-15T04:48:37;1999.90;;;999.90;;
68995;SDS011;56056;48.990;12.146;2024-01-15T04:51:04;1999.90;;;999.90;;
68995;SDS011;56056;48.990;12.146;2024-01-15T04:53:31;1581.72;;;800.22;;
68995;SDS011;56056;48.990;12.146;2024-01-15T04:55:57;1999.90;;;999.90;;
68995;SDS011;56056;48.990;12.146;2024-01-15T04:58:25;1999.90;;;999.90;;
68995;SDS011;56056;48.990;12.146;2024-01-15T05:00:52;1999.90;;;999.90;;
68995;SDS011;56056;48.990;12.146;2024-01-15T05:03:19;1999.90;;;999.90;;
68995;SDS011;56056;48.990;12.146;2024-01-15T05:05:45;1999.90;;;999.90;;
68995;SDS011;56056;48.990;12.146;2024-01-15T05:08:11;1999.90;;;999.90;;
68995;SDS011;56056;48.990;12.146;2024-01-15T05:10:37;1999.90;;;999.90;;
68995;SDS011;56056;48.990;12.146;2024-01-15T05:13:03;1999.90;;;999.90;;
68995;SDS011;56056;48.990;12.146;2024-01-15T05:15:30;1999.90;;;999.90;;
68995;SDS011;56056;48.990;12.146;2024-01-15T05:17:56;1999.90;;;999.90;;
68995;SDS011;56056;48.990;12.146;2024-01-15T05:20:22;1999.90;;;999.90;;
68995;SDS011;56056;48.990;12.146;2024-01-15T05:22:48;1999.90;;;999.90;;
68995;SDS011;56056;48.990;12.146;2024-01-15T05:25:14;1999.90;;;999.90;;
68995;SDS011;56056;48.990;12.146;2024-01-15T05:27:39;1999.90;;;999.90;;
68995;SDS011;56056;48.990;12.146;2024-01-15T05:30:05;1999.90;;;999.90;;
68995;SDS011;56056;48.990;12.146;2024-01-15T05:32:33;1999.90;;;999.90;;
68995;SDS011;56056;48.990;12.146;2024-01-15T05:34:59;1999.90;;;999.90;;
68995;SDS011;56056;48.990;12.146;2024-01-15T05:37:25;1999.90;;;999.90;;
68995;SDS011;56056;48.990;12.146;2024-01-15T05:39:51;1579.68;;;798.50;;
68995;SDS011;56056;48.990;12.146;2024-01-15T05:42:17;1999.90;;;999.90;;
68995;SDS011;56056;48.990;12.146;2024-01-15T05:44:43;1999.90;;;999.90;;
68995;SDS011;56056;48.990;12.146;2024-01-15T05:47:09;1999.90;;;999.90;;
68995;SDS011;56056;48.990;12.146;2024-01-15T05:49:36;1122.85;;;570.03;;
68995;SDS011;56056;48.990;12.146;2024-01-15T05:52:02;1041.47;;;526.72;;
68995;SDS011;56056;48.990;12.146;2024-01-15T05:54:29;1999.90;;;999.90;;
68995;SDS011;56056;48.990;12.146;2024-01-15T05:56:55;1999.90;;;999.90;;
68995;SDS011;56056;48.990;12.146;2024-01-15T05:59:20;1999.90;;;999.90;;
68995;SDS011;56056;48.990;12.146;2024-01-15T06:01:46;424.85;;;200.50;;
68995;SDS011;56056;48.990;12.146;2024-01-15T06:04:12;834.75;;;429.60;;
68995;SDS011;56056;48.990;12.146;2024-01-15T06:06:39;1999.90;;;999.90;;
68995;SDS011;56056;48.990;12.146;2024-01-15T06:09:05;1999.90;;;999.90;;
68995;SDS011;56056;48.990;12.146;2024-01-15T06:11:31;1999.90;;;999.90;;
68995;SDS011;56056;48.990;12.146;2024-01-15T06:13:57;1999.90;;;999.90;;
68995;SDS011;56056;48.990;12.146;2024-01-15T06:16:24;1400.97;;;689.27;;
68995;SDS011;56056;48.990;12.146;2024-01-15T06:18:50;1999.90;;;999.90;;
68995;SDS011;56056;48.990;12.146;2024-01-15T06:21:15;1999.90;;;999.90;;
68995;SDS011;56056;48.990;12.146;2024-01-15T06:23:43;1999.90;;;999.90;;
68995;SDS011;56056;48.990;12.146;2024-01-15T06:26:11;1999.90;;;999.90;;
68995;SDS011;56056;48.990;12.146;2024-01-15T06:28:37;1999.90;;;999.90;;
68995;SDS011;56056;48.990;12.146;2024-01-15T06:31:03;269.92;;;106.85;;
68995;SDS011;56056;48.990;12.146;2024-01-15T06:33:30;1999.90;;;999.90;;
68995;SDS011;56056;48.990;12.146;2024-01-15T06:35:56;1999.90;;;999.90;;
68995;SDS011;56056;48.990;12.146;2024-01-15T06:38:22;1999.90;;;999.90;;
68995;SDS011;56056;48.990;12.146;2024-01-15T06:40:49;1999.90;;;999.90;;
68995;SDS011;56056;48.990;12.146;2024-01-15T06:43:17;1999.90;;;999.90;;
68995;SDS011;56056;48.990;12.146;2024-01-15T06:45:43;1999.90;;;999.90;;
68995;SDS011;56056;48.990;12.146;2024-01-15T06:48:09;1999.90;;;999.90;;
68995;SDS011;56056;48.990;12.146;2024-01-15T06:50:35;1559.20;;;787.50;;
68995;SDS011;56056;48.990;12.146;2024-01-15T06:53:01;1999.90;;;999.90;;
68995;SDS011;56056;48.990;12.146;2024-01-15T06:55:26;1999.90;;;999.90;;
68995;SDS011;56056;48.990;12.146;2024-01-15T06:57:54;1999.90;;;999.90;;
68995;SDS011;56056;48.990;12.146;2024-01-15T07:00:20;1098.50;;;706.83;;
68995;SDS011;56056;48.990;12.146;2024-01-15T07:02:46;1999.90;;;999.90;;
68995;SDS011;56056;48.990;12.146;2024-01-15T07:05:12;1999.90;;;999.90;;
68995;SDS011;56056;48.990;12.146;2024-01-15T07:07:38;1999.90;;;999.90;;
68995;SDS011;56056;48.990;12.146;2024-01-15T07:10:04;1999.90;;;999.90;;
68995;SDS011;56056;48.990;12.146;2024-01-15T07:12:31;1103.32;;;571.17;;
68995;SDS011;56056;48.990;12.146;2024-01-15T07:14:59;1999.90;;;999.90;;
68995;SDS011;56056;48.990;12.146;2024-01-15T07:17:24;1999.90;;;999.90;;
68995;SDS011;56056;48.990;12.146;2024-01-15T07:19:50;1999.90;;;999.90;;
68995;SDS011;56056;48.990;12.146;2024-01-15T07:22:16;1999.90;;;999.90;;
68995;SDS011;56056;48.990;12.146;2024-01-15T07:24:42;1999.90;;;999.90;;
68995;SDS011;56056;48.990;12.146;2024-01-15T07:27:08;1999.90;;;999.90;;
68995;SDS011;56056;48.990;12.146;2024-01-15T07:29:34;1999.90;;;999.90;;
68995;SDS011;56056;48.990;12.146;2024-01-15T07:32:05;1999.90;;;999.90;;
68995;SDS011;56056;48.990;12.146;2024-01-15T07:34:32;1999.90;;;999.90;;
68995;SDS011;56056;48.990;12.146;2024-01-15T07:36:58;1999.90;;;999.90;;
68995;SDS011;56056;48.990;12.146;2024-01-15T07:39:24;1999.90;;;999.90;;
68995;SDS011;56056;48.990;12.146;2024-01-15T07:41:50;1999.90;;;999.90;;
68995;SDS011;56056;48.990;12.146;2024-01-15T07:44:16;1999.90;;;999.90;;
68995;SDS011;56056;48.990;12.146;2024-01-15T07:46:43;1213.78;;;664.60;;
68995;SDS011;56056;48.990;12.146;2024-01-15T07:49:11;1999.90;;;999.90;;
68995;SDS011;56056;48.990;12.146;2024-01-15T07:51:37;1541.18;;;769.28;;
68995;SDS011;56056;48.990;12.146;2024-01-15T07:54:05;1999.90;;;999.90;;
68995;SDS011;56056;48.990;12.146;2024-01-15T07:56:31;1120.13;;;528.67;;
68995;SDS011;56056;48.990;12.146;2024-01-15T07:58:57;1999.90;;;999.90;;
68995;SDS011;56056;48.990;12.146;2024-01-15T08:01:24;1999.90;;;999.90;;
68995;SDS011;56056;48.990;12.146;2024-01-15T08:03:49;1365.28;;;643.53;;
68995;SDS011;56056;48.990;12.146;2024-01-15T08:06:17;1387.07;;;758.25;;
68995;SDS011;56056;48.990;12.146;2024-01-15T08:08:43;1999.90;;;999.90;;
68995;SDS011;56056;48.990;12.146;2024-01-15T08:11:08;1484.13;;;781.80;;
68995;SDS011;56056;48.990;12.146;2024-01-15T08:13:34;1209.93;;;691.30;;
68995;SDS011;56056;48.990;12.146;2024-01-15T08:16:00;1756.40;;;907.72;;
68995;SDS011;56056;48.990;12.146;2024-01-15T08:18:27;1305.68;;;871.03;;
68995;SDS011;56056;48.990;12.146;2024-01-15T08:20:53;1999.90;;;999.90;;
68995;SDS011;56056;48.990;12.146;2024-01-15T08:23:20;1492.15;;;951.13;;
68995;SDS011;56056;48.990;12.146;2024-01-15T08:25:46;1973.30;;;999.90;;
68995;SDS011;56056;48.990;12.146;2024-01-15T08:28:12;1934.53;;;999.90;;
68995;SDS011;56056;48.990;12.146;2024-01-15T08:30:38;1590.95;;;999.90;;
68995;SDS011;56056;48.990;12.146;2024-01-15T08:33:04;1744.00;;;999.90;;
68995;SDS011;56056;48.990;12.146;2024-01-15T08:35:30;1990.20;;;999.90;;
68995;SDS011;56056;48.990;12.146;2024-01-15T08:37:55;1999.90;;;999.90;;
68995;SDS011;56056;48.990;12.146;2024-01-15T08:40:24;1999.90;;;999.90;;
68995;SDS011;56056;48.990;12.146;2024-01-15T08:42:50;1999.90;;;999.90;;
68995;SDS011;56056;48.990;12.146;2024-01-15T08:45:16;1999.90;;;999.90;;
68995;SDS011;56056;48.990;12.146;2024-01-15T08:47:42;1999.90;;;999.90;;
68995;SDS011;56056;48.990;12.146;2024-01-15T08:50:08;1999.90;;;999.90;;
68995;SDS011;56056;48.990;12.146;2024-01-15T08:52:35;1999.90;;;999.90;;
68995;SDS011;56056;48.990;12.146;2024-01-15T08:55:02;1999.90;;;999.90;;
68995;SDS011;56056;48.990;12.146;2024-01-15T08:57:30;1999.90;;;999.90;;
68995;SDS011;56056;48.990;12.146;2024-01-15T08:59:56;1070.95;;;893.28;;
68995;SDS011;56056;48.990;12.146;2024-01-15T09:02:23;1999.90;;;999.90;;
68995;SDS011;56056;48.990;12.146;2024-01-15T09:04:49;1591.15;;;999.90;;
68995;SDS011;56056;48.990;12.146;2024-01-15T09:07:15;1327.80;;;999.90;;
68995;SDS011;56056;48.990;12.146;2024-01-15T09:09:41;936.17;;;843.92;;
68995;SDS011;56056;48.990;12.146;2024-01-15T09:12:07;960.95;;;868.38;;
68995;SDS011;56056;48.990;12.146;2024-01-15T09:14:35;895.00;;;808.88;;
68995;SDS011;56056;48.990;12.146;2024-01-15T09:17:01;826.88;;;750.03;;
68995;SDS011;56056;48.990;12.146;2024-01-15T09:19:28;355.88;;;329.65;;
68995;SDS011;56056;48.990;12.146;2024-01-15T09:21:54;529.10;;;489.15;;
68995;SDS011;56056;48.990;12.146;2024-01-15T09:24:20;520.60;;;482.67;;
68995;SDS011;56056;48.990;12.146;2024-01-15T09:26:46;738.50;;;676.45;;
68995;SDS011;56056;48.990;12.146;2024-01-15T09:29:12;737.53;;;673.95;;
68995;SDS011;56056;48.990;12.146;2024-01-15T09:31:42;581.78;;;537.17;;
68995;SDS011;56056;48.990;12.146;2024-01-15T09:34:08;454.23;;;423.48;;
68995;SDS011;56056;48.990;12.146;2024-01-15T09:36:38;480.70;;;450.23;;
68995;SDS011;56056;48.990;12.146;2024-01-15T09:39:05;505.38;;;470.73;;
68995;SDS011;56056;48.990;12.146;2024-01-15T09:41:33;528.78;;;490.00;;
68995;SDS011;56056;48.990;12.146;2024-01-15T09:43:59;723.92;;;663.92;;
68995;SDS011;56056;48.990;12.146;2024-01-15T09:46:27;846.50;;;767.45;;
68995;SDS011;56056;48.990;12.146;2024-01-15T09:48:54;826.80;;;747.53;;
68995;SDS011;56056;48.990;12.146;2024-01-15T09:51:20;761.33;;;695.92;;
68995;SDS011;56056;48.990;12.146;2024-01-15T09:53:46;679.13;;;618.78;;
68995;SDS011;56056;48.990;12.146;2024-01-15T09:56:13;717.88;;;660.95;;
68995;SDS011;56056;48.990;12.146;2024-01-15T09:58:41;628.03;;;575.17;;
68995;SDS011;56056;48.990;12.146;2024-01-15T10:01:07;565.97;;;522.67;;
68995;SDS011;56056;48.990;12.146;2024-01-15T10:03:33;754.85;;;688.38;;
68995;SDS011;56056;48.990;12.146;2024-01-15T10:06:01;702.15;;;637.25;;
68995;SDS011;56056;48.990;12.146;2024-01-15T10:08:28;914.75;;;816.85;;
68995;SDS011;56056;48.990;12.146;2024-01-15T10:10:53;1194.47;;;999.90;;
68995;SDS011;56056;48.990;12.146;2024-01-15T10:13:20;1218.63;;;999.90;;
68995;SDS011;56056;48.990;12.146;2024-01-15T10:15:47;1395.35;;;999.90;;
68995;SDS011;56056;48.990;12.146;2024-01-15T10:18:13;810.30;;;735.63;;
68995;SDS011;56056;48.990;12.146;2024-01-15T10:20:39;572.20;;;530.10;;
68995;SDS011;56056;48.990;12.146;2024-01-15T10:23:06;405.23;;;378.05;;
68995;SDS011;56056;48.990;12.146;2024-01-15T10:25:32;568.72;;;528.33;;
68995;SDS011;56056;48.990;12.146;2024-01-15T10:28:00;780.78;;;713.75;;
68995;SDS011;56056;48.990;12.146;2024-01-15T10:30:28;852.03;;;773.20;;
68995;SDS011;56056;48.990;12.146;2024-01-15T10:32:57;949.75;;;850.15;;
68995;SDS011;56056;48.990;12.146;2024-01-15T10:35:26;1042.43;;;910.63;;
68995;SDS011;56056;48.990;12.146;2024-01-15T10:37:54;1026.80;;;916.17;;
68995;SDS011;56056;48.990;12.146;2024-01-15T10:40:21;1156.53;;;981.20;;
68995;SDS011;56056;48.990;12.146;2024-01-15T10:42:47;981.08;;;880.83;;
68995;SDS011;56056;48.990;12.146;2024-01-15T10:45:13;881.38;;;792.25;;
68995;SDS011;56056;48.990;12.146;2024-01-15T10:47:39;914.83;;;831.58;;
68995;SDS011;56056;48.990;12.146;2024-01-15T10:50:06;819.10;;;748.17;;
68995;SDS011;56056;48.990;12.146;2024-01-15T10:52:33;683.17;;;630.28;;
68995;SDS011;56056;48.990;12.146;2024-01-15T10:55:00;856.28;;;775.17;;
68995;SDS011;56056;48.990;12.146;2024-01-15T10:57:28;572.78;;;530.70;;
68995;SDS011;56056;48.990;12.146;2024-01-15T10:59:55;739.50;;;677.80;;
68995;SDS011;56056;48.990;12.146;2024-01-15T11:02:21;503.50;;;466.33;;
68995;SDS011;56056;48.990;12.146;2024-01-15T11:04:47;535.47;;;494.42;;
68995;SDS011;56056;48.990;12.146;2024-01-15T11:07:13;623.15;;;574.83;;
68995;SDS011;56056;48.990;12.146;2024-01-15T11:09:40;607.55;;;559.60;;
68995;SDS011;56056;48.990;12.146;2024-01-15T11:12:06;489.63;;;451.73;;
68995;SDS011;56056;48.990;12.146;2024-01-15T11:14:38;571.03;;;531.15;;
68995;SDS011;56056;48.990;12.146;2024-01-15T11:17:05;391.23;;;365.30;;
68995;SDS011;56056;48.990;12.146;2024-01-15T11:19:37;236.15;;;221.13;;
68995;SDS011;56056;48.990;12.146;2024-01-15T11:22:07;311.45;;;291.38;;
68995;SDS011;56056;48.990;12.146;2024-01-15T11:24:37;267.70;;;249.80;;
68995;SDS011;56056;48.990;12.146;2024-01-15T11:27:04;219.30;;;206.57;;
68995;SDS011;56056;48.990;12.146;2024-01-15T11:29:32;252.93;;;237.45;;
68995;SDS011;56056;48.990;12.146;2024-01-15T11:32:01;191.45;;;180.82;;
68995;SDS011;56056;48.990;12.146;2024-01-15T11:34:51;156.52;;;148.18;;
68995;SDS011;56056;48.990;12.146;2024-01-15T11:37:26;91.50;;;86.60;;
68995;SDS011;56056;48.990;12.146;2024-01-15T11:39:53;89.82;;;84.70;;
68995;SDS011;56056;48.990;12.146;2024-01-15T11:42:20;113.85;;;107.53;;
68995;SDS011;56056;48.990;12.146;2024-01-15T11:44:47;75.72;;;71.60;;
68995;SDS011;56056;48.990;12.146;2024-01-15T11:47:16;102.55;;;96.32;;
68995;SDS011;56056;48.990;12.146;2024-01-15T11:50:13;162.18;;;153.98;;
68995;SDS011;56056;48.990;12.146;2024-01-15T11:52:40;218.77;;;206.45;;
68995;SDS011;56056;48.990;12.146;2024-01-15T11:55:19;191.35;;;181.73;;
68995;SDS011;56056;48.990;12.146;2024-01-15T11:57:51;308.30;;;291.15;;
68995;SDS011;56056;48.990;12.146;2024-01-15T12:00:21;235.43;;;222.18;;
68995;SDS011;56056;48.990;12.146;2024-01-15T12:02:50;337.90;;;316.15;;
68995;SDS011;56056;48.990;12.146;2024-01-15T12:05:17;370.80;;;346.65;;
68995;SDS011;56056;48.990;12.146;2024-01-15T12:07:45;468.35;;;436.05;;
68995;SDS011;56056;48.990;12.146;2024-01-15T12:10:14;452.08;;;416.38;;
68995;SDS011;56056;48.990;12.146;2024-01-15T12:12:46;506.40;;;468.73;;
68995;SDS011;56056;48.990;12.146;2024-01-15T12:15:22;518.30;;;468.27;;
68995;SDS011;56056;48.990;12.146;2024-01-15T12:17:51;704.40;;;644.50;;
68995;SDS011;56056;48.990;12.146;2024-01-15T12:20:17;966.90;;;867.50;;
68995;SDS011;56056;48.990;12.146;2024-01-15T12:22:43;780.67;;;703.97;;
68995;SDS011;56056;48.990;12.146;2024-01-15T12:25:09;994.75;;;889.75;;
68995;SDS011;56056;48.990;12.146;2024-01-15T12:27:35;1100.32;;;969.85;;
68995;SDS011;56056;48.990;12.146;2024-01-15T12:30:01;1364.35;;;999.90;;
68995;SDS011;56056;48.990;12.146;2024-01-15T12:32:28;1400.55;;;999.90;;
68995;SDS011;56056;48.990;12.146;2024-01-15T12:34:56;1441.78;;;999.90;;
68995;SDS011;56056;48.990;12.146;2024-01-15T12:37:21;1564.75;;;999.90;;
68995;SDS011;56056;48.990;12.146;2024-01-15T12:39:48;1535.85;;;999.90;;
68995;SDS011;56056;48.990;12.146;2024-01-15T12:42:15;827.88;;;744.10;;
68995;SDS011;56056;48.990;12.146;2024-01-15T12:44:42;1989.72;;;999.90;;
68995;SDS011;56056;48.990;12.146;2024-01-15T12:47:09;1999.90;;;999.90;;
68995;SDS011;56056;48.990;12.146;2024-01-15T12:49:36;1999.90;;;999.90;;
68995;SDS011;56056;48.990;12.146;2024-01-15T12:52:03;1999.90;;;999.90;;
68995;SDS011;56056;48.990;12.146;2024-01-15T12:54:33;1999.90;;;999.90;;
68995;SDS011;56056;48.990;12.146;2024-01-15T12:56:58;1999.90;;;999.90;;
68995;SDS011;56056;48.990;12.146;2024-01-15T12:59:24;1999.90;;;999.90;;
68995;SDS011;56056;48.990;12.146;2024-01-15T13:01:50;1999.90;;;999.90;;
68995;SDS011;56056;48.990;12.146;2024-01-15T13:04:21;1022.15;;;650.22;;
68995;SDS011;56056;48.990;12.146;2024-01-15T13:06:47;1999.90;;;999.90;;
68995;SDS011;56056;48.990;12.146;2024-01-15T13:09:15;1374.32;;;894.83;;
68995;SDS011;56056;48.990;12.146;2024-01-15T13:11:42;1999.90;;;999.90;;
68995;SDS011;56056;48.990;12.146;2024-01-15T13:14:08;1999.90;;;999.90;;
68995;SDS011;56056;48.990;12.146;2024-01-15T13:16:34;1999.90;;;999.90;;
68995;SDS011;56056;48.990;12.146;2024-01-15T13:18:59;1723.43;;;914.85;;
68995;SDS011;56056;48.990;12.146;2024-01-15T13:21:26;1999.90;;;999.90;;
68995;SDS011;56056;48.990;12.146;2024-01-15T13:23:52;1934.00;;;974.30;;
68995;SDS011;56056;48.990;12.146;2024-01-15T13:26:19;1999.90;;;999.90;;
68995;SDS011;56056;48.990;12.146;2024-01-15T13:28:45;1999.90;;;999.90;;
68995;SDS011;56056;48.990;12.146;2024-01-15T13:31:11;1947.47;;;994.50;;
68995;SDS011;56056;48.990;12.146;2024-01-15T13:33:38;1999.90;;;999.90;;